Time;durP1;ratioP1;P1;durP2;ratioP2;P2;SDS_P1;SDS_P2;PMS_P1;PMS_P2;Temp;Humidity;BMP_temperature;BMP_pressure;BME280_temperature;BME280_humidity;BME280_pressure;Samples;Min_cycle;Max_cycle;Signal;HPM_P1;HPM_P2
2023/06/03 00:01:03;;;;;;;2.72;1.40;;;;;;;12.44;47.59;102464.09;7394037;19;20022;-59
2023/06/03 00:03:32;;;;;;;4.85;1.70;;;;;;;12.43;47.65;102460.56;7395060;19;20086;-57
2023/06/03 00:06:00;;;;;;;5.45;1.52;;;;;;;12.42;47.92;102461.50;7394290;19;20015;-59
2023/06/03 00:08:27;;;;;;;4.53;1.42;;;;;;;12.47;48.08;102468.38;7394671;19;20027;-59
2023/06/03 00:10:54;;;;;;;2.50;1.30;;;;;;;12.45;48.01;102465.81;7394084;19;20019;-59
2023/06/03 00:13:22;;;;;;;3.03;1.42;;;;;;;12.37;48.42;102466.22;7394647;19;20495;-60
2023/06/03 00:15:49;;;;;;;7.03;1.27;;;;;;;12.31;48.75;102466.53;7393840;19;20035;-59
2023/06/03 00:18:17;;;;;;;5.88;1.38;;;;;;;12.32;48.73;102462.09;7395104;19;20014;-59
2023/06/03 00:20:47;;;;;;;4.13;1.40;;;;;;;12.28;49.00;102466.69;7394100;19;20015;-59
2023/06/03 00:23:15;;;;;;;4.90;1.58;;;;;;;12.24;49.16;102462.50;7394338;19;20022;-59
2023/06/03 00:25:43;;;;;;;4.45;1.42;;;;;;;12.27;48.91;102462.34;7393674;19;20444;-59
2023/06/03 00:28:10;;;;;;;2.83;1.40;;;;;;;12.29;49.20;102464.94;7392042;19;20111;-59
2023/06/03 00:30:37;;;;;;;3.72;1.40;;;;;;;11.84;50.53;102461.09;7393274;19;20038;-59
2023/06/03 00:33:05;;;;;;;2.92;1.38;;;;;;;11.76;51.12;102465.91;7393917;19;20031;-59
2023/06/03 00:35:33;;;;;;;3.95;1.65;;;;;;;11.89;50.74;102467.84;7393981;19;20022;-60
2023/06/03 00:38:02;;;;;;;2.88;1.55;;;;;;;11.62;51.71;102467.44;7393565;19;20022;-60
2023/06/03 00:40:29;;;;;;;5.75;1.95;;;;;;;11.46;52.51;102467.34;7393252;19;20479;-60
2023/06/03 00:42:59;;;;;;;4.82;2.10;;;;;;;11.37;52.70;102470.47;7393684;19;20056;-60
2023/06/03 00:45:26;;;;;;;5.20;1.90;;;;;;;11.54;52.61;102471.44;7391900;19;20018;-60
2023/06/03 00:47:53;;;;;;;5.55;1.75;;;;;;;11.81;51.89;102466.50;7390292;19;20023;-60
2023/06/03 00:50:21;;;;;;;5.45;2.17;;;;;;;11.97;51.28;102470.13;7393322;19;20015;-60
2023/06/03 00:52:50;;;;;;;4.38;1.80;;;;;;;12.02;51.18;102472.53;7391654;19;20011;-60
2023/06/03 00:55:17;;;;;;;3.22;1.70;;;;;;;12.01;50.98;102476.97;7391726;19;20018;-60
2023/06/03 00:57:45;;;;;;;2.33;1.40;;;;;;;11.99;51.34;102473.56;7391390;19;20043;-60
2023/06/03 01:00:12;;;;;;;2.83;1.65;;;;;;;11.90;51.56;102476.69;7393284;19;20014;-60
2023/06/03 01:02:43;;;;;;;3.40;1.60;;;;;;;11.84;51.95;102480.53;7392262;19;20467;-59
2023/06/03 01:05:14;;;;;;;5.75;1.73;;;;;;;11.86;51.96;102481.28;7393432;19;20025;-59
2023/06/03 01:08:09;;;;;;;4.10;1.83;;;;;;;11.99;51.96;102478.03;7391397;19;20017;-59
2023/06/03 01:10:43;;;;;;;6.20;1.90;;;;;;;11.84;51.99;102477.88;7389551;19;20058;-60
2023/06/03 01:13:34;;;;;;;6.13;1.80;;;;;;;11.85;52.10;102478.72;7391358;19;20019;-59
2023/06/03 01:16:04;;;;;;;6.55;1.73;;;;;;;11.79;52.18;102477.22;7392062;19;20019;-59
2023/06/03 01:18:35;;;;;;;6.15;1.55;;;;;;;11.74;52.50;102479.22;7392482;19;20025;-59
2023/06/03 01:21:03;;;;;;;4.72;1.50;;;;;;;11.68;52.39;102485.72;7392381;19;20050;-59
2023/06/03 01:23:33;;;;;;;3.63;1.60;;;;;;;11.70;52.37;102489.13;7391076;19;20018;-60
2023/06/03 01:26:04;;;;;;;3.08;1.52;;;;;;;11.72;52.59;102481.13;7391696;19;20047;-60
2023/06/03 01:28:32;;;;;;;3.83;1.50;;;;;;;11.69;52.78;102483.91;7389191;19;20471;-59
2023/06/03 01:31:01;;;;;;;6.28;1.50;;;;;;;11.67;52.71;102491.09;7391455;19;20423;-59
2023/06/03 01:33:30;;;;;;;5.40;1.45;;;;;;;11.53;53.36;102485.63;7392537;19;20023;-59
2023/06/03 01:36:00;;;;;;;4.00;1.60;;;;;;;11.59;53.06;102486.16;7391228;19;20019;-60
2023/06/03 01:38:28;;;;;;;5.50;1.80;;;;;;;11.65;53.25;102482.38;7392296;19;20014;-59
2023/06/03 01:40:55;;;;;;;5.70;1.40;;;;;;;11.60;53.24;102481.72;7389724;19;20078;-58
2023/06/03 01:43:23;;;;;;;4.57;1.70;;;;;;;11.65;53.12;102485.88;7391985;19;20031;-58
2023/06/03 01:45:50;;;;;;;4.70;1.60;;;;;;;11.64;53.20;102488.63;7389252;19;20350;-58
2023/06/03 01:48:18;;;;;;;3.50;1.35;;;;;;;11.63;53.40;102489.53;7390454;19;20030;-58
2023/06/03 01:50:45;;;;;;;4.00;1.60;;;;;;;11.20;54.62;102494.31;7390555;19;20344;-58
2023/06/03 01:53:13;;;;;;;3.53;1.40;;;;;;;11.08;54.98;102490.44;7391758;19;20040;-58
2023/06/03 01:55:40;;;;;;;5.80;1.45;;;;;;;10.70;56.27;102486.97;7390661;19;20026;-58
2023/06/03 01:58:07;;;;;;;4.78;1.50;;;;;;;10.46;56.99;102495.09;7391624;19;20018;-58
2023/06/03 02:00:34;;;;;;;3.90;1.60;;;;;;;10.56;57.03;102492.88;7390588;19;20507;-58
2023/06/03 02:03:02;;;;;;;4.38;1.60;;;;;;;11.02;55.99;102501.34;7391492;19;20047;-57
2023/06/03 02:05:29;;;;;;;3.28;1.35;;;;;;;11.09;55.57;102507.22;7391193;19;20014;-57
2023/06/03 02:07:56;;;;;;;4.25;1.50;;;;;;;11.19;55.39;102500.53;7390053;19;20026;-57
2023/06/03 02:10:23;;;;;;;3.72;1.20;;;;;;;11.26;55.40;102501.13;7390855;19;20040;-58
2023/06/03 02:12:50;;;;;;;4.63;1.63;;;;;;;11.27;55.17;102506.34;7390259;19;20023;-57
2023/06/03 02:15:18;;;;;;;3.40;1.65;;;;;;;11.19;55.33;102496.09;7390884;19;20649;-57
2023/06/03 02:17:45;;;;;;;4.20;2.00;;;;;;;11.17;55.55;102489.13;7389548;19;20019;-57
2023/06/03 02:20:12;;;;;;;3.15;1.48;;;;;;;11.20;55.51;102494.31;7390566;19;20064;-58
2023/06/03 02:22:39;;;;;;;4.60;1.40;;;;;;;11.19;55.36;102503.19;7396732;19;20025;-58
2023/06/03 02:25:08;;;;;;;4.22;1.50;;;;;;;11.15;55.50;102501.63;7398072;19;20123;-57
2023/06/03 02:27:36;;;;;;;5.25;1.75;;;;;;;11.09;55.75;102504.56;7393787;19;20018;-58
2023/06/03 02:30:04;;;;;;;3.50;1.50;;;;;;;11.00;56.09;102503.22;7398309;19;20015;-57
2023/06/03 02:32:32;;;;;;;3.97;1.73;;;;;;;10.89;56.10;102506.38;7397648;19;20023;-58
2023/06/03 02:34:59;;;;;;;5.50;1.70;;;;;;;10.88;56.21;102499.34;7398212;19;20043;-58
2023/06/03 02:37:27;;;;;;;3.97;1.67;;;;;;;10.87;56.37;102502.06;7395348;19;20022;-58
2023/06/03 02:39:55;;;;;;;6.65;1.70;;;;;;;10.93;56.25;102505.28;7397937;19;20007;-59
2023/06/03 02:42:22;;;;;;;4.22;2.08;;;;;;;10.88;56.16;102495.84;7397312;19;20046;-59
2023/06/03 02:44:49;;;;;;;5.15;1.70;;;;;;;10.83;56.41;102500.47;7396346;19;20022;-59
2023/06/03 02:47:16;;;;;;;4.50;1.70;;;;;;;10.82;56.59;102507.56;7395070;19;20034;-59
2023/06/03 02:49:45;;;;;;;3.90;1.70;;;;;;;10.76;56.82;102497.28;7397657;19;20054;-60
2023/06/03 02:52:12;;;;;;;3.70;1.70;;;;;;;10.68;56.89;102504.69;7396929;19;20019;-60
2023/06/03 02:54:39;;;;;;;3.38;1.90;;;;;;;10.65;56.83;102503.06;7397695;19;20127;-61
2023/06/03 02:57:07;;;;;;;2.95;1.80;;;;;;;10.63;57.23;102504.91;7394765;19;20010;-61
2023/06/03 02:59:34;;;;;;;6.38;1.90;;;;;;;10.53;57.27;102503.63;7397018;19;20019;-61
2023/06/03 03:02:02;;;;;;;4.35;1.58;;;;;;;10.52;57.48;102501.88;7394400;19;20078;-61
2023/06/03 03:04:33;;;;;;;3.40;1.83;;;;;;;10.61;57.32;102506.78;7397242;19;20014;-61
2023/06/03 03:07:01;;;;;;;6.05;2.13;;;;;;;10.60;57.36;102505.03;7394883;19;20416;-61
2023/06/03 03:09:29;;;;;;;5.00;2.03;;;;;;;10.70;57.08;102508.16;7396725;19;20021;-61
2023/06/03 03:11:56;;;;;;;5.95;1.80;;;;;;;10.70;57.45;102513.44;7396083;19;20018;-61
2023/06/03 03:14:23;;;;;;;3.63;1.92;;;;;;;10.71;57.14;102517.81;7395425;19;20023;-60
2023/06/03 03:16:52;;;;;;;3.90;1.67;;;;;;;10.55;57.68;102507.06;7393308;19;20018;-60
2023/06/03 03:19:19;;;;;;;5.35;1.80;;;;;;;10.53;57.79;102511.59;7396805;19;20050;-60
2023/06/03 03:21:46;;;;;;;5.32;1.90;;;;;;;10.49;57.76;102510.88;7396218;19;20027;-60
2023/06/03 03:24:14;;;;;;;3.83;1.92;;;;;;;10.48;57.95;102517.06;7396612;19;20088;-61
2023/06/03 03:26:41;;;;;;;6.28;1.85;;;;;;;10.49;58.16;102509.97;7394837;19;20097;-60
2023/06/03 03:29:08;;;;;;;5.15;1.83;;;;;;;10.47;57.91;102514.50;7394083;19;20017;-61
2023/06/03 03:31:35;;;;;;;4.88;1.60;;;;;;;10.49;58.04;102518.81;7395656;19;20015;-59
2023/06/03 03:34:22;;;;;;;3.63;2.10;;;;;;;10.56;58.26;102507.91;7393982;19;20022;-59
2023/06/03 03:36:49;;;;;;;5.20;1.80;;;;;;;10.22;58.95;102512.03;7394049;19;20053;-58
2023/06/03 03:39:16;;;;;;;5.38;2.22;;;;;;;9.89;60.39;102517.88;7395852;19;20086;-58
2023/06/03 03:41:43;;;;;;;8.85;2.33;;;;;;;9.77;60.98;102521.03;7395013;19;20042;-59
2023/06/03 03:44:12;;;;;;;5.93;2.25;;;;;;;9.82;61.07;102521.69;7396308;19;20031;-59
2023/06/03 03:47:01;;;;;;;5.38;2.13;;;;;;;9.66;61.85;102521.47;7394338;19;20022;-60
2023/06/03 03:49:31;;;;;;;4.90;1.92;;;;;;;9.57;62.40;102526.28;7393873;19;20018;-62
2023/06/03 03:52:04;;;;;;;4.13;2.03;;;;;;;9.78;61.77;102528.03;7394967;19;20042;-60
2023/06/03 03:54:35;;;;;;;5.30;1.88;;;;;;;10.20;60.37;102521.84;7395695;19;20037;-59
2023/06/03 03:57:12;;;;;;;5.13;2.30;;;;;;;10.33;59.75;102519.53;7393184;19;20011;-59
2023/06/03 03:59:40;;;;;;;5.88;2.28;;;;;;;10.38;59.06;102522.84;7395574;19;20036;-58
2023/06/03 04:02:07;;;;;;;4.38;1.90;;;;;;;10.40;59.13;102521.84;7392796;19;20035;-59
2023/06/03 04:04:43;;;;;;;7.00;1.80;;;;;;;10.49;58.88;102524.09;7393984;19;20039;-59
2023/06/03 04:07:16;;;;;;;4.13;1.75;;;;;;;10.56;58.82;102529.09;7393143;19;20098;-58
2023/06/03 04:09:44;;;;;;;4.85;1.90;;;;;;;10.62;58.58;102524.41;7395636;19;20015;-59
2023/06/03 04:12:29;;;;;;;4.68;2.00;;;;;;;10.70;58.22;102521.41;7392233;19;20069;-59
2023/06/03 04:14:57;;;;;;;4.60;1.73;;;;;;;10.70;58.27;102521.41;7395025;19;20092;-58
2023/06/03 04:17:26;;;;;;;5.10;2.00;;;;;;;10.77;57.73;102524.63;7392558;19;20047;-59
2023/06/03 04:19:55;;;;;;;6.38;1.92;;;;;;;10.75;57.80;102527.34;7393134;19;20021;-58
2023/06/03 04:22:24;;;;;;;7.10;2.15;;;;;;;10.74;57.96;102534.44;7393944;19;20022;-58
2023/06/03 04:24:58;;;;;;;4.03;1.85;;;;;;;10.71;57.78;102531.06;7394367;19;20502;-59
2023/06/03 04:27:25;;;;;;;3.90;1.90;;;;;;;10.59;58.33;102528.97;7392259;19;20026;-58
2023/06/03 04:29:53;;;;;;;3.80;1.55;;;;;;;10.65;58.27;102534.00;7392800;19;20021;-59
2023/06/03 04:32:20;;;;;;;5.43;1.98;;;;;;;10.77;58.25;102533.44;7393395;19;20038;-58
2023/06/03 04:34:53;;;;;;;5.07;1.88;;;;;;;10.82;58.02;102530.56;7394120;19;20104;-58
2023/06/03 04:37:21;;;;;;;5.80;2.20;;;;;;;10.82;58.03;102534.06;7392163;19;20022;-59
2023/06/03 04:39:49;;;;;;;6.28;2.28;;;;;;;10.83;57.94;102527.84;7393641;19;20514;-58
2023/06/03 04:42:17;;;;;;;4.75;1.88;;;;;;;10.91;57.89;102532.78;7390943;19;20022;-58
2023/06/03 04:44:45;;;;;;;3.80;1.50;;;;;;;10.85;57.67;102526.00;7393022;19;20519;-60
2023/06/03 04:47:12;;;;;;;5.53;1.90;;;;;;;10.95;57.52;102531.72;7392026;19;20043;-58
2023/06/03 04:49:39;;;;;;;5.40;2.10;;;;;;;11.05;57.67;102540.09;7390093;19;20015;-59
2023/06/03 04:52:12;;;;;;;4.60;1.80;;;;;;;11.03;57.35;102539.31;7392851;19;20014;-59
2023/06/03 04:54:40;;;;;;;3.85;1.90;;;;;;;11.09;57.62;102533.72;7393058;19;20018;-59
2023/06/03 04:57:07;;;;;;;7.93;1.95;;;;;;;11.17;57.25;102534.22;7390164;19;20018;-58
2023/06/03 04:59:34;;;;;;;5.82;2.00;;;;;;;11.26;56.94;102535.59;7393851;19;20015;-58
2023/06/03 05:02:01;;;;;;;4.32;1.90;;;;;;;11.19;57.19;102535.88;7392545;19;20435;-58
2023/06/03 05:04:32;;;;;;;4.75;1.83;;;;;;;11.05;57.57;102534.81;7393177;19;20494;-58
2023/06/03 05:07:00;;;;;;;4.28;1.85;;;;;;;11.14;57.61;102535.25;7391778;19;20474;-58
2023/06/03 05:09:27;;;;;;;4.97;1.92;;;;;;;11.25;57.19;102532.06;7391790;19;20026;-59
2023/06/03 05:11:56;;;;;;;5.22;2.08;;;;;;;11.34;56.81;102528.97;7390654;19;20026;-59
2023/06/03 05:14:24;;;;;;;3.55;1.85;;;;;;;11.38;56.61;102527.91;7392326;19;20432;-59
2023/06/03 05:16:51;;;;;;;4.93;1.80;;;;;;;11.27;57.02;102524.03;7391405;19;20059;-59
2023/06/03 05:19:18;;;;;;;3.13;1.80;;;;;;;11.25;57.24;102526.75;7392517;19;20054;-59
2023/06/03 05:21:45;;;;;;;3.28;1.90;;;;;;;11.36;57.22;102529.75;7392501;19;20018;-58
2023/06/03 05:24:13;;;;;;;4.53;1.85;;;;;;;11.43;57.14;102532.97;7392496;19;20014;-59
2023/06/03 05:26:40;;;;;;;3.78;1.85;;;;;;;11.47;57.48;102532.75;7392005;19;20074;-60
2023/06/03 05:29:08;;;;;;;3.47;1.77;;;;;;;11.51;57.60;102530.78;7390802;19;20022;-61
2023/06/03 05:31:35;;;;;;;3.53;1.80;;;;;;;11.55;57.33;102535.00;7391819;19;20022;-60
2023/06/03 05:34:02;;;;;;;3.97;1.73;;;;;;;11.70;56.75;102542.22;7392217;19;20022;-61
2023/06/03 05:36:29;;;;;;;4.15;1.92;;;;;;;11.72;56.58;102539.50;7390738;19;20039;-58
2023/06/03 05:38:57;;;;;;;5.47;1.95;;;;;;;11.74;56.60;102542.94;7390675;19;20046;-59
2023/06/03 05:41:24;;;;;;;3.97;2.13;;;;;;;11.76;56.55;102533.09;7391360;19;20046;-59
2023/06/03 05:43:52;;;;;;;5.85;1.90;;;;;;;11.75;56.97;102536.69;7390089;19;20102;-58
2023/06/03 05:46:19;;;;;;;5.45;1.92;;;;;;;11.85;56.97;102535.31;7391674;19;20459;-58
2023/06/03 05:48:47;;;;;;;4.82;1.92;;;;;;;11.97;56.62;102539.16;7390831;19;20026;-58
2023/06/03 05:51:14;;;;;;;5.30;1.83;;;;;;;12.10;56.36;102529.63;7389712;19;20019;-58
2023/06/03 05:53:43;;;;;;;3.90;1.98;;;;;;;12.16;56.36;102531.09;7389735;19;20031;-59
2023/06/03 05:56:11;;;;;;;4.43;1.80;;;;;;;12.20;56.25;102532.66;7389116;19;20074;-59
2023/06/03 05:58:38;;;;;;;4.05;1.73;;;;;;;12.30;56.39;102530.38;7391078;19;20018;-58
2023/06/03 06:01:05;;;;;;;3.85;2.10;;;;;;;12.35;56.39;102529.19;7390926;19;20010;-59
2023/06/03 06:03:33;;;;;;;3.63;1.80;;;;;;;12.42;56.89;102525.28;7390710;19;20018;-58
2023/06/03 06:06:01;;;;;;;2.90;1.70;;;;;;;12.56;56.22;102529.00;7390560;19;20737;-58
2023/06/03 06:08:28;;;;;;;6.60;1.92;;;;;;;12.64;56.05;102532.13;7390687;19;20021;-60
2023/06/03 06:10:56;;;;;;;5.43;2.00;;;;;;;12.69;55.94;102522.09;7388417;19;20015;-60
2023/06/03 06:13:23;;;;;;;4.85;2.08;;;;;;;12.79;55.67;102528.63;7391042;19;20043;-58
2023/06/03 06:15:58;;;;;;;7.72;2.35;;;;;;;12.81;55.18;102529.38;7388621;19;20023;-59
2023/06/03 06:18:26;;;;;;;4.82;1.70;;;;;;;12.75;55.38;102528.88;7391183;19;20029;-58
2023/06/03 06:20:53;;;;;;;3.88;1.65;;;;;;;12.85;55.19;102536.25;7389873;19;20025;-60
2023/06/03 06:23:21;;;;;;;5.63;2.00;;;;;;;12.93;54.96;102536.72;7390466;19;20015;-61
2023/06/03 06:25:49;;;;;;;4.38;2.00;;;;;;;12.99;54.43;102537.31;7390503;19;20035;-58
2023/06/03 06:28:21;;;;;;;4.28;1.67;;;;;;;13.08;54.14;102534.97;7390272;19;20039;-59
2023/06/03 06:30:53;;;;;;;9.57;2.13;;;;;;;13.16;53.95;102538.09;7389614;19;20035;-59
2023/06/03 06:33:21;;;;;;;4.22;2.00;;;;;;;13.23;53.75;102532.41;7388748;19;20010;-59
2023/06/03 06:35:48;;;;;;;4.63;1.90;;;;;;;13.28;53.70;102525.94;7387899;19;20023;-58
2023/06/03 06:38:15;;;;;;;5.90;1.70;;;;;;;13.38;53.87;102532.44;7390260;19;20047;-60
2023/06/03 06:40:45;;;;;;;3.97;1.90;;;;;;;13.39;54.23;102533.28;7389106;19;20015;-60
2023/06/03 06:43:15;;;;;;;4.57;1.75;;;;;;;13.39;53.68;102538.59;7390246;19;20022;-62
2023/06/03 06:45:42;;;;;;;4.25;1.63;;;;;;;13.42;54.08;102530.44;7389486;19;20051;-61
2023/06/03 06:48:11;;;;;;;5.07;1.70;;;;;;;13.55;53.78;102533.28;7390007;19;20051;-59
2023/06/03 06:50:45;;;;;;;6.55;1.98;;;;;;;13.62;53.87;102538.19;7387667;19;20026;-59
2023/06/03 06:53:14;;;;;;;2.38;1.15;;;;;;;13.72;53.33;102537.63;7389787;19;20039;-61
2023/06/03 06:56:06;;;;;;;5.47;1.70;;;;;;;13.81;53.10;102532.63;7389485;19;20032;-61
2023/06/03 06:58:35;;;;;;;4.28;1.80;;;;;;;13.80;53.15;102525.56;7389005;19;20042;-60
2023/06/03 07:01:05;;;;;;;4.63;1.40;;;;;;;13.85;51.50;102522.63;7389344;19;20021;-61
2023/06/03 07:03:35;;;;;;;3.63;1.30;;;;;;;13.89;50.55;102522.38;7389778;19;20025;-59
2023/06/03 07:06:03;;;;;;;2.45;1.30;;;;;;;13.98;50.15;102530.78;7387065;19;20029;-60
2023/06/03 07:08:30;;;;;;;4.75;1.23;;;;;;;14.01;50.22;102526.13;7393958;19;20010;-60
2023/06/03 07:11:02;;;;;;;5.57;1.50;;;;;;;14.05;49.97;102519.66;7394191;19;20081;-59
2023/06/03 07:13:30;;;;;;;5.07;1.30;;;;;;;14.10;49.19;102514.91;7397377;19;20046;-60
2023/06/03 07:15:57;;;;;;;2.60;1.00;;;;;;;14.24;48.85;102516.72;7392816;19;20047;-61
2023/06/03 07:18:28;;;;;;;4.00;1.30;;;;;;;14.29;48.53;102519.13;7395017;19;20019;-60
2023/06/03 07:20:55;;;;;;;4.00;1.20;;;;;;;14.36;47.44;102515.97;7394059;19;20089;-60
2023/06/03 07:23:27;;;;;;;2.28;1.10;;;;;;;14.47;46.19;102519.81;7396255;19;20487;-60
2023/06/03 07:25:55;;;;;;;1.45;1.00;;;;;;;14.47;46.32;102522.47;7395490;19;20029;-60
2023/06/03 07:28:28;;;;;;;3.55;1.10;;;;;;;14.53;46.06;102517.63;7396277;19;20019;-60
2023/06/03 07:30:58;;;;;;;4.32;1.00;;;;;;;14.60;45.84;102529.63;7395273;19;20107;-61
2023/06/03 07:33:56;;;;;;;2.03;0.82;;;;;;;14.73;45.00;102521.72;7394859;19;20490;-61
2023/06/03 07:36:26;;;;;;;2.50;0.95;;;;;;;14.69;44.58;102517.56;7393727;19;20077;-62
2023/06/03 07:39:18;;;;;;;5.40;1.00;;;;;;;14.78;43.97;102516.97;7394755;19;20015;-61
2023/06/03 07:41:52;;;;;;;4.38;1.10;;;;;;;14.78;44.31;102521.44;7395410;19;20019;-62
2023/06/03 07:44:34;;;;;;;2.80;0.75;;;;;;;14.86;44.19;102520.00;7396215;19;20022;-62
2023/06/03 07:47:02;;;;;;;2.67;0.90;;;;;;;14.90;44.09;102523.31;7392264;19;20011;-61
2023/06/03 07:49:29;;;;;;;3.25;0.90;;;;;;;14.98;44.04;102522.84;7392910;19;20015;-62
2023/06/03 07:51:57;;;;;;;1.88;0.90;;;;;;;15.05;44.02;102524.16;7392754;19;20018;-62
2023/06/03 07:54:26;;;;;;;3.05;1.00;;;;;;;15.09;43.92;102526.53;7395763;19;20495;-61
2023/06/03 07:57:00;;;;;;;3.70;1.17;;;;;;;15.14;43.42;102528.03;7393259;19;20018;-61
2023/06/03 07:59:27;;;;;;;;;;;;;;;15.10;43.86;102524.72;7394271;19;20032;-62
2023/06/03 08:01:58;;;;;;;2.63;1.10;;;;;;;15.13;43.87;102521.84;7392642;19;19914;-62
2023/06/03 08:04:28;;;;;;;2.10;0.90;;;;;;;15.22;43.39;102518.56;7395241;19;20018;-61
2023/06/03 08:06:58;;;;;;;3.80;1.10;;;;;;;15.25;43.31;102518.38;7393511;19;20019;-61
2023/06/03 08:09:32;;;;;;;2.78;0.82;;;;;;;15.32;42.75;102522.38;7393265;19;20109;-61
2023/06/03 08:12:02;;;;;;;4.03;1.00;;;;;;;15.34;42.68;102520.47;7394869;19;20018;-61
2023/06/03 08:14:32;;;;;;;3.78;0.98;;;;;;;15.35;43.08;102521.31;7394700;19;20019;-62
2023/06/03 08:17:09;;;;;;;1.88;0.80;;;;;;;15.43;42.18;102519.00;7391742;19;20030;-61
2023/06/03 08:19:37;;;;;;;1.98;0.80;;;;;;;15.51;40.92;102521.16;7391079;19;20019;-62
2023/06/03 08:22:35;;;;;;;1.83;0.80;;;;;;;15.58;40.18;102519.78;7394034;19;20025;-61
2023/06/03 08:25:02;;;;;;;3.05;0.80;;;;;;;15.49;40.22;102520.38;7392094;19;20041;-61
2023/06/03 08:27:34;;;;;;;3.53;1.02;;;;;;;15.53;40.33;102522.78;7393006;19;20015;-61
2023/06/03 08:30:05;;;;;;;2.78;0.80;;;;;;;15.62;40.71;102525.78;7392394;19;20033;-61
2023/06/03 08:32:33;;;;;;;1.80;0.75;;;;;;;15.71;39.99;102522.53;7393910;19;20022;-61
2023/06/03 08:35:01;;;;;;;2.90;0.90;;;;;;;15.72;40.09;102517.09;7393012;19;20078;-60
2023/06/03 08:37:30;;;;;;;3.15;0.63;;;;;;;15.69;40.04;102511.97;7392105;19;20043;-59
2023/06/03 08:39:57;;;;;;;1.40;0.70;;;;;;;15.75;39.67;102511.53;7392259;19;20023;-59
2023/06/03 08:42:33;;;;;;;2.22;0.80;;;;;;;15.82;39.27;102504.81;7391354;19;20094;-59
2023/06/03 08:45:08;;;;;;;3.42;0.70;;;;;;;15.88;39.09;102514.25;7393494;19;20367;-59
2023/06/03 08:47:57;;;;;;;2.05;0.75;;;;;;;15.91;39.05;102513.16;7392062;19;20026;-59
2023/06/03 08:50:27;;;;;;;3.42;0.90;;;;;;;15.92;39.47;102512.22;7390179;19;20026;-58
2023/06/03 08:52:56;;;;;;;3.15;0.80;;;;;;;15.96;39.38;102514.56;7391759;19;20014;-58
2023/06/03 08:55:24;;;;;;;3.17;1.00;;;;;;;16.00;39.69;102508.06;7393453;19;20018;-59
2023/06/03 08:58:14;;;;;;;3.25;0.80;;;;;;;16.11;39.68;102503.81;7391705;19;20038;-68
2023/06/03 09:00:42;;;;;;;1.20;0.65;;;;;;;16.12;39.80;102514.38;7391589;19;20074;-67
2023/06/03 09:03:11;;;;;;;4.15;1.05;;;;;;;16.19;40.04;102502.28;7392459;19;20035;-69
2023/06/03 09:05:40;;;;;;;3.75;0.73;;;;;;;16.21;40.14;102500.34;7392527;19;20015;-68
2023/06/03 09:08:08;;;;;;;3.70;0.80;;;;;;;16.30;39.80;102498.88;7390761;19;20022;-68
2023/06/03 09:10:35;;;;;;;2.60;0.70;;;;;;;16.42;38.99;102502.50;7389706;19;20055;-68
2023/06/03 09:13:04;;;;;;;1.95;0.80;;;;;;;16.41;38.82;102507.00;7392404;19;20043;-68
2023/06/03 09:15:32;;;;;;;3.42;0.93;;;;;;;16.46;38.50;102501.31;7392603;19;20061;-68
2023/06/03 09:17:59;;;;;;;3.10;0.80;;;;;;;16.51;38.41;102494.66;7390717;19;20015;-68
2023/06/03 09:20:26;;;;;;;1.98;0.73;;;;;;;16.53;38.33;102495.44;7391644;19;20119;-69
2023/06/03 09:22:55;;;;;;;2.50;0.93;;;;;;;16.64;38.30;102493.81;7391558;19;20015;-67
2023/06/03 09:25:22;;;;;;;1.75;0.85;;;;;;;16.71;38.58;102490.59;7391906;19;20018;-68
2023/06/03 09:27:50;;;;;;;7.60;0.98;;;;;;;16.77;38.23;102492.00;7390242;19;20010;-68
2023/06/03 09:30:17;;;;;;;4.60;1.02;;;;;;;16.85;37.74;102494.97;7388554;19;20015;-68
2023/06/03 09:32:45;;;;;;;2.42;0.70;;;;;;;16.83;37.21;102496.91;7389582;19;20018;-68
2023/06/03 09:35:13;;;;;;;2.50;0.75;;;;;;;16.87;36.75;102498.41;7391653;19;20039;-69
2023/06/03 09:37:57;;;;;;;3.22;1.05;;;;;;;16.89;36.16;102487.56;7389971;19;20082;-68
2023/06/03 09:40:27;;;;;;;2.55;0.80;;;;;;;16.86;36.76;102490.47;7389466;19;20018;-67
2023/06/03 09:42:55;;;;;;;2.42;0.90;;;;;;;16.86;37.18;102491.31;7389502;19;20043;-67
2023/06/03 09:45:23;;;;;;;3.50;1.00;;;;;;;16.94;37.18;102499.66;7390888;19;20031;-68
2023/06/03 09:47:50;;;;;;;3.05;0.70;;;;;;;16.92;36.95;102493.56;7389377;19;20018;-68
2023/06/03 09:50:17;;;;;;;1.58;0.65;;;;;;;16.90;37.42;102486.59;7389614;19;20018;-70
2023/06/03 09:52:45;;;;;;;3.55;1.00;;;;;;;16.94;37.47;102482.72;7388388;19;20018;-68
2023/06/03 09:55:14;;;;;;;2.90;0.80;;;;;;;17.03;37.47;102487.44;7391210;19;20033;-68
2023/06/03 09:57:41;;;;;;;2.30;0.70;;;;;;;17.15;35.95;102483.84;7387506;19;20026;-68
2023/06/03 10:00:11;;;;;;;3.38;0.95;;;;;;;17.10;36.09;102487.84;7388865;19;20043;-68
2023/06/03 10:02:43;;;;;;;3.95;0.90;;;;;;;17.11;35.61;102485.03;7387957;19;20018;-67
2023/06/03 10:05:29;;;;;;;3.95;0.77;;;;;;;17.23;34.89;102485.94;7390972;19;20025;-68
2023/06/03 10:07:57;;;;;;;3.80;0.80;;;;;;;17.23;35.80;102486.81;7386983;19;20014;-69
2023/06/03 10:10:28;;;;;;;2.92;0.80;;;;;;;17.36;35.70;102484.09;7387437;19;20115;-70
2023/06/03 10:12:56;;;;;;;3.65;0.80;;;;;;;17.40;35.47;102482.00;7387547;19;20038;-68
2023/06/03 10:15:37;;;;;;;5.03;1.10;;;;;;;17.51;34.19;102487.41;7389959;19;20022;-69
2023/06/03 10:18:06;;;;;;;3.70;1.00;;;;;;;17.41;34.93;102487.25;7387074;19;20018;-68
2023/06/03 10:20:34;;;;;;;2.45;0.90;;;;;;;17.44;34.95;102483.50;7388035;19;20025;-69
2023/06/03 10:23:03;;;;;;;3.13;1.05;;;;;;;17.43;35.01;102473.75;7388380;19;20019;-69
2023/06/03 10:25:33;;;;;;;4.22;0.90;;;;;;;17.39;34.98;102473.13;7390730;19;20719;-70
2023/06/03 10:28:00;;;;;;;2.95;0.65;;;;;;;17.42;35.35;102478.25;7387463;19;20014;-69
2023/06/03 10:30:30;;;;;;;2.15;0.80;;;;;;;17.48;35.78;102474.28;7386773;19;20043;-68
2023/06/03 10:32:58;;;;;;;4.07;1.10;;;;;;;17.58;35.61;102477.94;7389220;19;20043;-70
2023/06/03 10:35:27;;;;;;;2.97;0.90;;;;;;;17.53;35.23;102470.25;7390358;19;20022;-70
2023/06/03 10:37:55;;;;;;;4.22;0.98;;;;;;;17.55;35.73;102478.16;7387907;19;20039;-69
2023/06/03 10:40:22;;;;;;;3.97;1.10;;;;;;;17.68;35.33;102478.97;7388990;19;20031;-71
2023/06/03 10:42:53;;;;;;;3.10;1.00;;;;;;;17.69;34.85;102472.63;7393289;19;20019;-70
2023/06/03 10:45:21;;;;;;;3.22;1.10;;;;;;;17.64;34.53;102464.09;7396706;19;20035;-70
2023/06/03 10:47:52;;;;;;;1.77;1.00;;;;;;;17.58;34.49;102461.00;7392733;19;20022;-71
2023/06/03 10:50:27;;;;;;;3.97;1.02;;;;;;;17.49;34.46;102468.78;7395258;19;20015;-70
2023/06/03 10:52:57;;;;;;;3.90;0.85;;;;;;;17.39;34.63;102454.38;7396535;19;20014;-69
2023/06/03 10:55:49;;;;;;;1.05;0.70;;;;;;;17.53;34.81;102453.34;7396118;19;20089;-69
2023/06/03 10:58:25;;;;;;;3.80;1.00;;;;;;;17.69;35.34;102444.97;7393738;19;20022;-68
2023/06/03 11:01:01;;;;;;;3.08;0.75;;;;;;;17.73;35.06;102443.75;7395823;19;20018;-69
2023/06/03 11:03:31;;;;;;;3.42;1.15;;;;;;;17.85;34.83;102445.53;7396462;19;20071;-69
2023/06/03 11:06:17;;;;;;;2.97;0.85;;;;;;;17.98;34.20;102442.75;7397383;19;20018;-67
2023/06/03 11:09:05;;;;;;;4.60;0.70;;;;;;;17.91;34.64;102438.84;7398231;19;20015;-68
2023/06/03 11:11:39;;;;;;;1.38;0.90;;;;;;;17.98;34.97;102432.03;7393052;19;20018;-67
2023/06/03 11:14:07;;;;;;;3.22;1.00;;;;;;;18.07;34.54;102435.81;7396935;19;20259;-67
2023/06/03 11:16:57;;;;;;;2.65;0.88;;;;;;;18.12;34.11;102437.16;7395027;19;20023;-67
2023/06/03 11:19:33;;;;;;;2.13;0.80;;;;;;;18.13;33.47;102432.66;7396864;19;20140;-68
2023/06/03 11:22:04;;;;;;;2.13;0.95;;;;;;;18.08;33.45;102435.69;7393012;19;20011;-68
2023/06/03 11:24:37;;;;;;;4.50;1.00;;;;;;;18.11;33.62;102429.25;7395935;19;20022;-69
2023/06/03 11:27:14;;;;;;;4.25;0.95;;;;;;;18.17;33.25;102432.28;7394275;19;20026;-68
2023/06/03 11:29:55;;;;;;;1.95;0.98;;;;;;;18.33;32.90;102426.56;7395647;19;20018;-61
2023/06/03 11:32:22;;;;;;;3.05;0.70;;;;;;;18.33;33.46;102425.72;7394342;19;20021;-61
2023/06/03 11:34:58;;;;;;;3.15;0.90;;;;;;;18.42;33.24;102420.44;7395972;19;20015;-61
2023/06/03 11:37:46;;;;;;;2.60;1.15;;;;;;;18.40;32.75;102418.88;7393383;19;20023;-61
2023/06/03 11:40:19;;;;;;;2.45;0.95;;;;;;;18.40;33.23;102427.78;7392721;19;20026;-62